createdAt,value
2023-03-28T00:00:04.486Z,10.67
2023-03-28T00:04:05.633Z,14.73
2023-03-28T00:08:07.376Z,15.47
2023-03-28T00:12:08.587Z,16.93
2023-03-28T00:16:11.864Z,13.70
2023-03-28T00:20:13.990Z,9.10
2023-03-28T00:24:20.099Z,13.00
2023-03-28T00:28:21.523Z,12.87
2023-03-28T00:32:22.790Z,14.07
2023-03-28T00:36:28.551Z,15.57
2023-03-28T00:40:33.782Z,10.77
2023-03-28T00:44:47.245Z,19.03
2023-03-28T00:48:51.778Z,13.50
2023-03-28T00:53:03.935Z,16.00
2023-03-28T00:57:07.571Z,13.37
2023-03-28T01:01:11.588Z,17.10
2023-03-28T01:05:13.381Z,11.93
2023-03-28T01:09:16.362Z,15.77
2023-03-28T01:13:20.686Z,12.50
2023-03-28T01:17:21.745Z,11.43
2023-03-28T01:21:46.090Z,24.10
2023-03-28T01:26:24.215Z,19.07
2023-03-28T01:30:47.290Z,14.13
2023-03-28T01:34:58.069Z,17.40
2023-03-28T01:39:31.736Z,15.80
2023-03-28T01:43:42.299Z,18.97
2023-03-28T01:47:49.863Z,16.37
2023-03-28T01:52:00.206Z,17.67
2023-03-28T01:56:26.116Z,14.87
2023-03-28T02:00:36.623Z,23.27
2023-03-28T02:04:41.412Z,12.80
2023-03-28T02:08:45.629Z,17.37
2023-03-28T02:12:53.178Z,18.00
2023-03-28T02:16:59.934Z,15.47
2023-03-28T02:21:10.751Z,15.20
2023-03-28T02:25:11.938Z,24.07
2023-03-28T02:29:15.116Z,21.20
2023-03-28T02:33:37.081Z,17.93
2023-03-28T02:37:41.830Z,15.03
2023-03-28T02:41:49.673Z,17.80
2023-03-28T02:46:16.798Z,21.47
2023-03-28T02:50:42.041Z,23.07
2023-03-28T02:54:46.932Z,21.40
2023-03-28T02:58:55.015Z,19.40
2023-03-28T03:02:56.538Z,19.37
2023-03-28T03:06:59.496Z,28.47
2023-03-28T03:11:00.540Z,16.33
2023-03-28T03:15:03.418Z,24.03
2023-03-28T03:19:04.895Z,23.00
2023-03-28T03:23:06.826Z,21.53
2023-03-28T03:27:07.942Z,23.23
2023-03-28T03:31:08.921Z,22.57
2023-03-28T03:35:10.486Z,30.07
2023-03-28T03:39:11.860Z,31.80
2023-03-28T03:43:13.071Z,32.43
2023-03-28T03:47:16.103Z,23.43
2023-03-28T03:51:17.426Z,25.07
2023-03-28T03:55:20.189Z,23.30
2023-03-28T03:59:21.362Z,23.07
2023-03-28T04:03:24.213Z,29.73
2023-03-28T04:07:25.625Z,26.93
2023-03-28T04:11:26.734Z,21.33
2023-03-28T04:15:27.861Z,19.87
2023-03-28T04:19:29.048Z,32.63
2023-03-28T04:23:30.005Z,25.40
2023-03-28T04:27:30.957Z,24.90
2023-03-28T04:31:34.575Z,36.00
2023-03-28T04:35:35.993Z,23.63
2023-03-28T04:39:37.028Z,22.97
2023-03-28T04:43:38.120Z,32.27
2023-03-28T04:47:39.189Z,19.83
2023-03-28T04:51:40.532Z,23.43
2023-03-28T04:55:43.425Z,21.63
2023-03-28T04:59:44.373Z,22.43
2023-03-28T05:03:45.407Z,25.40
2023-03-28T05:07:46.676Z,32.13
2023-03-28T05:11:47.660Z,24.13
2023-03-28T05:15:48.856Z,29.47
2023-03-28T05:19:49.918Z,24.00
2023-03-28T05:23:52.512Z,20.40
2023-03-28T05:27:53.695Z,25.00
2023-03-28T05:31:54.899Z,27.53
2023-03-28T05:35:56.054Z,20.97
2023-03-28T05:39:57.132Z,20.43
2023-03-28T05:43:58.113Z,23.17
2023-03-28T05:47:59.226Z,20.53
2023-03-28T05:52:00.293Z,23.00
2023-03-28T05:56:01.503Z,16.70
2023-03-28T06:00:10.624Z,22.37
2023-03-28T06:04:12.179Z,23.67
2023-03-28T06:08:13.164Z,17.33
2023-03-28T06:12:14.163Z,17.53
2023-03-28T06:16:15.392Z,15.77
2023-03-28T06:20:16.943Z,17.60
2023-03-28T06:24:17.894Z,18.00
2023-03-28T06:28:19.375Z,18.93
2023-03-28T06:32:20.516Z,15.40
2023-03-28T06:36:21.794Z,19.17
2023-03-28T06:40:22.791Z,16.00
2023-03-28T06:44:23.962Z,12.13
2023-03-28T06:48:30.122Z,19.23
2023-03-28T06:52:31.314Z,20.70
2023-03-28T06:56:33.179Z,14.77
2023-03-28T07:00:34.888Z,12.40
2023-03-28T07:04:36.456Z,22.90
2023-03-28T07:08:38.082Z,11.27
2023-03-28T07:12:39.263Z,13.30
2023-03-28T07:16:40.684Z,14.67
2023-03-28T07:20:43.036Z,19.23
2023-03-28T07:24:44.886Z,15.23
2023-03-28T07:28:46.241Z,12.93
2023-03-28T07:32:55.205Z,10.00
2023-03-28T07:36:50.159Z,9.03
2023-03-28T07:40:51.432Z,9.70
2023-03-28T07:44:53.386Z,15.60
2023-03-28T07:48:55.637Z,15.67
2023-03-28T07:52:57.461Z,10.70
2023-03-28T07:56:59.593Z,8.47
2023-03-28T08:01:06.109Z,10.30
2023-03-28T08:05:08.205Z,11.63
2023-03-28T08:09:11.893Z,13.37
2023-03-28T08:13:13.028Z,10.77
2023-03-28T08:17:14.094Z,16.60
2023-03-28T08:21:15.372Z,17.73
2023-03-28T08:25:16.895Z,14.03
2023-03-28T08:29:20.160Z,9.47
2023-03-28T08:33:21.347Z,8.27
2023-03-28T08:37:24.332Z,9.93
2023-03-28T08:41:59.555Z,9.47
2023-03-28T08:46:01.360Z,6.90
2023-03-28T08:50:17.721Z,11.63
2023-03-28T08:54:25.824Z,8.10
2023-03-28T08:58:31.082Z,6.03
2023-03-28T09:02:32.286Z,7.77
2023-03-28T09:06:39.199Z,3.77
2023-03-28T09:10:47.074Z,9.57
2023-03-28T09:14:55.251Z,12.80
2023-03-28T09:19:16.676Z,9.27
2023-03-28T09:23:37.913Z,6.90
2023-03-28T09:28:08.321Z,5.80
2023-03-28T09:32:22.145Z,15.90
2023-03-28T09:36:31.588Z,7.27
2023-03-28T09:40:33.146Z,7.17
2023-03-28T09:44:53.993Z,8.70
2023-03-28T09:48:47.577Z,5.97
2023-03-28T09:52:52.820Z,5.10
2023-03-28T09:57:02.982Z,4.70
2023-03-28T10:01:07.840Z,6.13
2023-03-28T10:05:33.908Z,5.17
2023-03-28T10:09:53.676Z,4.23
2023-03-28T10:13:55.649Z,7.13
2023-03-28T10:17:59.819Z,7.30
2023-03-28T10:22:06.792Z,4.60
2023-03-28T10:26:12.021Z,3.40
2023-03-28T10:30:25.756Z,3.30
2023-03-28T10:34:32.800Z,4.50
2023-03-28T10:38:45.973Z,4.20
2023-03-28T10:42:49.741Z,2.10
2023-03-28T10:46:51.734Z,5.57
2023-03-28T10:50:55.345Z,2.57
2023-03-28T10:55:15.460Z,1.63
2023-03-28T10:59:35.183Z,7.37
2023-03-28T11:03:55.364Z,1.63
2023-03-28T11:08:03.240Z,2.83
2023-03-28T11:12:28.357Z,2.53
2023-03-28T11:16:38.925Z,3.13
2023-03-28T11:21:03.013Z,1.93
2023-03-28T11:25:23.187Z,2.07
2023-03-28T11:29:43.257Z,1.20
2023-03-28T11:33:50.971Z,2.67
2023-03-28T11:38:10.211Z,3.67
2023-03-28T11:42:30.344Z,3.47
2023-03-28T11:46:51.593Z,6.43
2023-03-28T11:51:14.463Z,3.07
2023-03-28T11:55:22.395Z,3.07
2023-03-28T11:59:45.852Z,2.63
2023-03-28T12:04:02.763Z,3.87
2023-03-28T12:08:13.770Z,2.80
2023-03-28T12:12:21.353Z,2.77
2023-03-28T12:16:26.557Z,6.33
2023-03-28T12:20:40.792Z,3.97
2023-03-28T12:24:51.856Z,5.57
2023-03-28T12:28:55.269Z,4.60
2023-03-28T12:33:06.482Z,4.47
2023-03-28T12:37:14.040Z,3.13
2023-03-28T12:41:18.684Z,6.40
2023-03-28T12:45:26.290Z,3.03
2023-03-28T12:49:36.576Z,4.13
2023-03-28T12:53:44.249Z,7.03
2023-03-28T12:57:46.669Z,3.77
2023-03-28T13:01:49.931Z,3.43
2023-03-28T13:06:12.271Z,3.40
2023-03-28T13:10:18.421Z,3.83
2023-03-28T13:14:37.435Z,2.03
2023-03-28T13:18:47.792Z,2.30
2023-03-28T13:23:04.059Z,1.63
2023-03-28T13:27:16.149Z,2.63
2023-03-28T13:31:26.404Z,2.73
2023-03-28T13:35:45.870Z,2.93
2023-03-28T13:39:54.944Z,2.23
2023-03-28T13:43:58.450Z,1.40
2023-03-28T13:48:10.012Z,1.03
2023-03-28T13:52:21.815Z,3.67
2023-03-28T13:56:26.765Z,1.47
2023-03-28T14:04:37.610Z,3.93
2023-03-28T14:08:42.576Z,4.53
2023-03-28T14:12:43.569Z,2.57
2023-03-28T14:16:45.749Z,4.70
2023-03-28T14:20:47.027Z,4.10
2023-03-28T14:24:53.575Z,2.27
2023-03-28T14:29:04.081Z,5.03
2023-03-28T14:33:16.630Z,3.93
2023-03-28T14:37:18.284Z,3.53
2023-03-28T14:41:25.428Z,3.20
2023-03-28T14:45:28.809Z,4.13
2023-03-28T14:49:30.385Z,5.30
2023-03-28T14:53:38.476Z,2.90
2023-03-28T14:57:40.148Z,7.40
2023-03-28T15:01:43.460Z,4.93
2023-03-28T15:05:46.749Z,4.33
2023-03-28T15:10:06.670Z,3.87
2023-03-28T15:14:18.318Z,4.53
2023-03-28T15:18:24.754Z,3.00
2023-03-28T15:22:28.401Z,3.33
2023-03-28T15:26:33.210Z,5.53
2023-03-28T15:30:37.208Z,3.77
2023-03-28T15:34:44.531Z,4.90
2023-03-28T15:38:51.392Z,7.87
2023-03-28T15:42:52.703Z,4.07
2023-03-28T15:46:57.608Z,6.73
2023-03-28T15:51:04.909Z,4.67
2023-03-28T15:55:06.485Z,5.87
2023-03-28T15:59:14.268Z,6.33
2023-03-28T16:03:22.179Z,7.43
2023-03-28T16:07:23.281Z,6.10
2023-03-28T16:11:26.650Z,4.27
2023-03-28T16:15:27.657Z,6.23
2023-03-28T16:19:30.560Z,7.03
2023-03-28T16:23:31.686Z,7.10
2023-03-28T16:27:32.936Z,4.30
2023-03-28T16:31:34.122Z,5.63
2023-03-28T16:35:35.767Z,5.50
2023-03-28T16:39:37.608Z,6.43
2023-03-28T16:43:39.499Z,6.40
2023-03-28T16:47:40.883Z,7.00
2023-03-28T16:51:42.224Z,9.20
2023-03-28T16:55:43.245Z,5.80
2023-03-28T16:59:44.254Z,3.87
2023-03-28T17:03:46.165Z,7.47
2023-03-28T17:07:47.243Z,6.53
2023-03-28T17:11:48.257Z,4.27
2023-03-28T17:15:50.338Z,5.47
2023-03-28T17:19:52.122Z,5.17
2023-03-28T17:23:54.717Z,5.57
2023-03-28T17:27:55.872Z,5.57
2023-03-28T17:31:56.872Z,11.80
2023-03-28T17:35:58.173Z,6.80
2023-03-28T17:39:59.418Z,8.67
2023-03-28T17:44:00.504Z,9.17
2023-03-28T17:48:01.959Z,9.93
2023-03-28T17:52:03.650Z,9.17
2023-03-28T17:56:06.628Z,6.03
2023-03-28T18:00:09.130Z,9.77
2023-03-28T18:04:10.734Z,8.28
2023-03-28T18:08:11.931Z,6.33
2023-03-28T18:12:13.282Z,10.87
2023-03-28T18:16:17.549Z,10.20
2023-03-28T18:20:18.600Z,8.67
2023-03-28T18:24:21.212Z,10.23
2023-03-28T18:28:24.491Z,6.90
2023-03-28T18:32:25.665Z,6.03
2023-03-28T18:36:26.914Z,7.23
2023-03-28T18:40:28.212Z,11.03
2023-03-28T18:44:29.545Z,6.70
2023-03-28T18:48:30.626Z,7.73
2023-03-28T18:52:32.117Z,6.80
2023-03-28T18:56:34.157Z,8.97
2023-03-28T19:00:35.735Z,6.93
2023-03-28T19:04:37.234Z,7.03
2023-03-28T19:08:38.505Z,4.63
2023-03-28T19:12:40.569Z,16.77
2023-03-28T19:16:41.744Z,10.73
2023-03-28T19:20:46.760Z,7.80
2023-03-28T19:24:47.912Z,12.57
2023-03-28T19:28:49.694Z,10.17
2023-03-28T19:32:51.723Z,8.17
2023-03-28T19:36:52.698Z,6.87
2023-03-28T19:41:01.129Z,9.10
2023-03-28T19:45:02.071Z,5.83
2023-03-28T19:49:05.605Z,4.13
2023-03-28T19:53:06.612Z,7.13
2023-03-28T19:57:08.415Z,10.50
2023-03-28T20:01:09.699Z,9.37
2023-03-28T20:05:10.724Z,8.03
2023-03-28T20:09:11.721Z,6.37
2023-03-28T20:13:13.254Z,5.63
2023-03-28T20:17:14.237Z,4.17
2023-03-28T20:21:15.448Z,4.30
2023-03-28T20:25:16.564Z,8.30
2023-03-28T20:29:17.900Z,4.93
2023-03-28T20:33:21.902Z,4.37
2023-03-28T20:37:22.875Z,6.10
2023-03-28T20:41:23.963Z,6.53
2023-03-28T20:45:25.046Z,4.47
2023-03-28T20:49:26.592Z,4.40
2023-03-28T20:53:28.473Z,5.50
2023-03-28T20:57:29.649Z,4.17
2023-03-28T21:01:33.183Z,7.83
2023-03-28T21:05:34.511Z,6.67
2023-03-28T21:09:36.023Z,6.37
2023-03-28T21:13:37.163Z,6.07
2023-03-28T21:17:39.327Z,7.27
2023-03-28T21:21:40.532Z,5.63
2023-03-28T21:25:42.581Z,6.20
2023-03-28T21:33:56.196Z,7.03
2023-03-28T21:37:57.339Z,9.10
2023-03-28T21:41:59.028Z,4.63
2023-03-28T21:46:00.242Z,7.67
2023-03-28T21:50:03.367Z,5.87
2023-03-28T21:54:05.820Z,5.43
2023-03-28T21:58:07.152Z,9.60
2023-03-28T22:02:08.226Z,8.27
2023-03-28T22:06:10.044Z,8.83
2023-03-28T22:10:11.555Z,5.77
2023-03-28T22:14:12.628Z,5.13
2023-03-28T22:18:15.250Z,5.83
2023-03-28T22:22:19.176Z,5.43
2023-03-28T22:26:20.543Z,5.60
2023-03-28T22:30:21.613Z,4.87
2023-03-28T22:34:22.739Z,5.30
2023-03-28T22:38:23.891Z,5.77
2023-03-28T22:42:25.102Z,5.57
2023-03-28T22:46:26.340Z,11.73
2023-03-28T22:50:28.289Z,6.40
2023-03-28T22:54:30.796Z,5.90
2023-03-28T22:58:32.969Z,6.70
2023-03-28T23:02:34.510Z,8.37
2023-03-28T23:06:35.633Z,6.63
2023-03-28T23:10:37.131Z,5.90
2023-03-28T23:14:38.638Z,5.67
2023-03-28T23:18:39.642Z,7.97
2023-03-28T23:22:43.066Z,7.10
2023-03-28T23:26:44.046Z,7.97
2023-03-28T23:30:45.186Z,6.53
2023-03-28T23:34:46.258Z,8.03
2023-03-28T23:38:48.287Z,7.27
2023-03-28T23:42:49.419Z,5.97
2023-03-28T23:46:50.874Z,4.73
2023-03-28T23:50:52.038Z,4.70
2023-03-28T23:54:53.151Z,4.97
2023-03-28T23:58:54.294Z,6.67
